createdAt,value
2018-12-19T00:00:54.407Z,99.87
2018-12-19T00:01:54.402Z,99.77
2018-12-19T00:02:54.389Z,99.77
2018-12-19T00:03:54.356Z,99.77
2018-12-19T00:04:54.559Z,99.77
2018-12-19T00:05:54.507Z,99.58
2018-12-19T00:06:54.497Z,99.21
2018-12-19T00:07:54.384Z,99.30
2018-12-19T00:08:54.402Z,99.21
2018-12-19T00:09:54.498Z,99.11
2018-12-19T00:10:53.908Z,98.83
2018-12-19T00:11:54.368Z,98.73
2018-12-19T00:12:54.345Z,99.02
2018-12-19T00:13:54.411Z,98.26
2018-12-19T00:14:54.441Z,98.35
2018-12-19T00:15:53.895Z,98.26
2018-12-19T00:16:54.487Z,98.16
2018-12-19T00:17:54.514Z,98.35
2018-12-19T00:18:54.465Z,98.45
2018-12-19T00:19:54.435Z,98.16
2018-12-19T00:20:54.406Z,98.54
2018-12-19T00:21:54.324Z,97.88
2018-12-19T00:22:54.464Z,98.16
2018-12-19T00:23:54.405Z,98.35
2018-12-19T00:24:54.422Z,98.16
2018-12-19T00:25:53.901Z,98.07
2018-12-19T00:26:54.410Z,97.60
2018-12-19T00:27:54.425Z,97.50
2018-12-19T00:28:54.392Z,97.88
2018-12-19T00:29:54.015Z,97.50
2018-12-19T00:30:55.912Z,97.50
2018-12-19T00:31:55.910Z,97.31
2018-12-19T00:32:54.332Z,97.22
2018-12-19T00:33:53.577Z,97.31
2018-12-19T00:34:53.729Z,97.31
2018-12-19T00:35:55.883Z,97.50
2018-12-19T00:36:53.899Z,97.31
2018-12-19T00:37:54.359Z,96.93
2018-12-19T00:38:53.767Z,97.02
2018-12-19T00:39:53.793Z,96.55
2018-12-19T00:40:53.811Z,96.45
2018-12-19T00:41:53.647Z,96.93
2018-12-19T00:42:53.778Z,96.45
2018-12-19T00:43:53.821Z,96.45
2018-12-19T00:44:53.796Z,95.89
2018-12-19T00:45:54.342Z,96.17
2018-12-19T00:46:54.311Z,96.08
2018-12-19T00:47:53.909Z,95.98
2018-12-19T00:48:53.907Z,95.79
2018-12-19T00:49:53.905Z,95.70
2018-12-19T00:50:54.303Z,95.89
2018-12-19T00:51:53.896Z,95.98
2018-12-19T00:52:53.901Z,96.74
2018-12-19T00:53:55.918Z,95.60
2018-12-19T00:54:54.347Z,95.70
2018-12-19T00:55:53.619Z,96.08
2018-12-19T00:56:53.653Z,96.55
2018-12-19T00:57:53.620Z,95.79
2018-12-19T00:58:53.106Z,95.60
2018-12-19T00:59:53.654Z,95.89
2018-12-19T01:00:53.411Z,95.70
2018-12-19T01:01:53.893Z,95.60
2018-12-19T01:02:53.910Z,95.22
2018-12-19T01:03:53.910Z,94.93
2018-12-19T01:04:54.031Z,95.22
2018-12-19T01:05:54.303Z,95.03
2018-12-19T01:06:53.351Z,94.74
2018-12-19T01:07:53.571Z,95.22
2018-12-19T01:08:53.328Z,94.79
2018-12-19T01:09:53.576Z,94.89
2018-12-19T01:10:53.619Z,93.51
2018-12-19T01:11:53.591Z,93.51
2018-12-19T01:12:53.639Z,93.80
2018-12-19T01:13:53.710Z,93.41
2018-12-19T01:14:53.205Z,93.51
2018-12-19T01:15:53.691Z,92.85
2018-12-19T01:16:53.139Z,92.85
2018-12-19T01:17:53.708Z,92.85
2018-12-19T01:18:53.661Z,93.18
2018-12-19T01:19:53.520Z,93.46
2018-12-19T01:20:53.520Z,92.90
2018-12-19T01:21:53.417Z,92.32
2018-12-19T01:22:53.896Z,92.71
2018-12-19T01:23:53.901Z,93.08
2018-12-19T01:24:53.897Z,92.61
2018-12-19T01:25:53.918Z,92.32
2018-12-19T01:26:53.919Z,91.75
2018-12-19T01:27:53.920Z,91.47
2018-12-19T01:28:53.922Z,91.28
2018-12-19T01:29:53.938Z,91.94
2018-12-19T01:30:54.189Z,91.66
2018-12-19T01:31:53.906Z,92.51
2018-12-19T01:32:53.927Z,92.42
2018-12-19T01:33:54.361Z,91.75
2018-12-19T01:34:53.676Z,91.75
2018-12-19T01:35:53.565Z,91.47
2018-12-19T01:36:53.847Z,91.66
2018-12-19T01:37:53.280Z,91.38
2018-12-19T01:38:53.248Z,91.47
2018-12-19T01:39:53.171Z,91.56
2018-12-19T01:40:52.907Z,91.47
2018-12-19T01:41:55.059Z,91.66
2018-12-19T01:42:53.243Z,91.38
2018-12-19T01:43:53.427Z,91.66
2018-12-19T01:44:53.412Z,91.38
2018-12-19T01:45:54.438Z,91.28
2018-12-19T01:46:53.371Z,91.71
2018-12-19T01:47:55.448Z,91.28
2018-12-19T01:48:53.429Z,91.56
2018-12-19T01:49:53.416Z,91.85
2018-12-19T01:50:53.425Z,91.94
2018-12-19T01:51:53.376Z,91.47
2018-12-19T01:52:53.793Z,91.75
2018-12-19T01:53:53.361Z,91.28
2018-12-19T01:54:53.695Z,91.85
2018-12-19T01:55:53.871Z,91.75
2018-12-19T01:56:55.486Z,91.47
2018-12-19T01:57:53.412Z,91.47
2018-12-19T01:58:53.452Z,91.75
2018-12-19T01:59:53.258Z,91.85
2018-12-19T02:00:53.880Z,90.99
2018-12-19T02:01:53.410Z,91.28
2018-12-19T02:02:52.867Z,91.47
2018-12-19T02:03:52.919Z,91.47
2018-12-19T02:04:53.412Z,90.99
2018-12-19T02:05:53.567Z,91.28
2018-12-19T02:06:53.462Z,91.09
2018-12-19T02:07:52.920Z,91.09
2018-12-19T02:08:53.490Z,91.19
2018-12-19T02:09:53.435Z,91.28
2018-12-19T02:10:53.349Z,91.28
2018-12-19T02:11:53.316Z,90.90
2018-12-19T02:12:53.377Z,91.19
2018-12-19T02:13:53.377Z,90.99
2018-12-19T02:14:52.897Z,90.52
2018-12-19T02:15:53.412Z,90.99
2018-12-19T02:16:53.411Z,91.09
2018-12-19T02:17:53.421Z,91.19
2018-12-19T02:18:53.419Z,90.71
2018-12-19T02:19:53.403Z,90.99
2018-12-19T02:20:53.423Z,90.71
2018-12-19T02:21:53.406Z,90.33
2018-12-19T02:22:53.344Z,90.42
2018-12-19T02:23:53.375Z,90.42
2018-12-19T02:24:53.418Z,90.42
2018-12-19T02:25:53.420Z,90.42
2018-12-19T02:26:53.421Z,90.71
2018-12-19T02:27:53.416Z,90.42
2018-12-19T02:28:52.923Z,90.52
2018-12-19T02:29:53.424Z,90.52
2018-12-19T02:30:53.425Z,91.09
2018-12-19T02:31:53.426Z,91.09
2018-12-19T02:32:53.378Z,90.99
2018-12-19T02:33:53.440Z,90.52
2018-12-19T02:34:53.487Z,90.61
2018-12-19T02:35:53.417Z,90.42
2018-12-19T02:36:53.402Z,90.52
2018-12-19T02:37:53.406Z,90.52
2018-12-19T02:38:53.448Z,91.19
2018-12-19T02:39:53.411Z,90.80
2018-12-19T02:40:53.372Z,90.90
2018-12-19T02:41:53.813Z,90.90
2018-12-19T02:42:53.166Z,90.80
2018-12-19T02:43:53.084Z,90.61
2018-12-19T02:44:53.019Z,90.90
2018-12-19T02:45:52.952Z,90.90
2018-12-19T02:46:53.343Z,91.28
2018-12-19T02:47:53.269Z,90.61
2018-12-19T02:48:53.289Z,91.47
2018-12-19T02:49:52.943Z,91.19
2018-12-19T02:50:52.874Z,90.90
2018-12-19T02:51:53.319Z,91.47
2018-12-19T02:52:53.383Z,91.28
2018-12-19T02:53:52.869Z,91.66
2018-12-19T02:54:52.906Z,91.75
2018-12-19T02:55:54.976Z,91.56
2018-12-19T02:56:53.383Z,91.75
2018-12-19T02:57:54.948Z,91.56
2018-12-19T02:58:53.299Z,91.56
2018-12-19T02:59:54.942Z,91.85
2018-12-19T03:00:53.448Z,91.94
2018-12-19T03:01:53.360Z,91.66
2018-12-19T03:02:54.887Z,91.47
2018-12-19T03:03:54.933Z,91.09
2018-12-19T03:04:53.343Z,91.47
2018-12-19T03:05:53.477Z,91.19
2018-12-19T03:06:52.936Z,91.38
2018-12-19T03:07:53.005Z,91.09
2018-12-19T03:08:52.999Z,90.99
2018-12-19T03:09:53.039Z,90.90
2018-12-19T03:10:52.902Z,91.47
2018-12-19T03:11:53.334Z,91.47
2018-12-19T03:12:52.856Z,90.90
2018-12-19T03:13:52.404Z,90.99
2018-12-19T03:14:52.943Z,90.99
2018-12-19T03:15:52.882Z,91.38
2018-12-19T03:16:52.409Z,91.85
2018-12-19T03:17:52.941Z,91.56
2018-12-19T03:18:52.891Z,91.85
2018-12-19T03:19:52.927Z,91.85
2018-12-19T03:20:53.191Z,91.75
2018-12-19T03:21:52.931Z,91.38
2018-12-19T03:22:52.939Z,91.66
2018-12-19T03:23:52.883Z,91.47
2018-12-19T03:24:52.932Z,91.66
2018-12-19T03:25:52.834Z,91.66
2018-12-19T03:26:52.907Z,91.66
2018-12-19T03:27:52.925Z,91.47
2018-12-19T03:28:52.848Z,91.56
2018-12-19T03:29:52.916Z,91.66
2018-12-19T03:30:53.323Z,91.23
2018-12-19T03:31:52.950Z,91.71
2018-12-19T03:32:52.918Z,91.52
2018-12-19T03:33:52.907Z,91.75
2018-12-19T03:34:52.920Z,91.89
2018-12-19T03:35:52.916Z,91.99
2018-12-19T03:36:52.952Z,91.33
2018-12-19T03:37:52.482Z,91.23
2018-12-19T03:38:53.313Z,91.13
2018-12-19T03:39:52.156Z,91.04
2018-12-19T03:40:52.355Z,91.23
2018-12-19T03:41:52.866Z,91.13
2018-12-19T03:42:52.969Z,91.13
2018-12-19T03:43:53.037Z,90.85
2018-12-19T03:44:52.992Z,90.94
2018-12-19T03:45:52.146Z,90.37
2018-12-19T03:46:52.404Z,90.56
2018-12-19T03:47:53.044Z,90.47
2018-12-19T03:48:58.953Z,90.56
2018-12-19T03:49:52.890Z,90.47
2018-12-19T03:50:52.933Z,90.66
2018-12-19T03:51:52.819Z,90.00
2018-12-19T03:52:52.946Z,90.47
2018-12-19T03:53:52.883Z,90.19
2018-12-19T03:54:52.891Z,90.47
2018-12-19T03:55:54.436Z,90.47
2018-12-19T03:56:52.851Z,90.66
2018-12-19T03:57:52.409Z,90.66
2018-12-19T03:58:53.128Z,90.47
2018-12-19T03:59:52.476Z,90.75
2018-12-19T04:00:52.792Z,90.37
2018-12-19T04:01:54.458Z,90.47
2018-12-19T04:02:54.414Z,90.37
2018-12-19T04:03:53.024Z,90.47
2018-12-19T04:04:54.449Z,90.28
2018-12-19T04:05:54.458Z,90.28
2018-12-19T04:06:52.930Z,90.56
2018-12-19T04:07:52.937Z,90.47
2018-12-19T04:08:52.425Z,90.47
2018-12-19T04:09:57.626Z,90.75
2018-12-19T04:10:52.460Z,90.75
2018-12-19T04:11:52.828Z,90.56
2018-12-19T04:12:52.417Z,90.66
2018-12-19T04:13:53.102Z,90.94
2018-12-19T04:14:52.968Z,91.04
2018-12-19T04:15:52.905Z,90.56
2018-12-19T04:16:52.445Z,91.04
2018-12-19T04:17:52.419Z,90.66
2018-12-19T04:18:52.435Z,90.85
2018-12-19T04:19:52.468Z,91.33
2018-12-19T04:20:52.419Z,90.75
2018-12-19T04:21:51.934Z,91.33
2018-12-19T04:22:52.422Z,90.94
2018-12-19T04:23:51.992Z,90.75
2018-12-19T04:24:52.439Z,90.75
2018-12-19T04:25:52.415Z,90.85
2018-12-19T04:26:52.854Z,91.13
2018-12-19T04:27:52.188Z,91.04
2018-12-19T04:28:52.053Z,91.04
2018-12-19T04:29:52.260Z,91.52
2018-12-19T04:30:51.916Z,90.94
2018-12-19T04:31:52.514Z,90.85
2018-12-19T04:32:52.772Z,91.42
2018-12-19T04:33:52.417Z,91.23
2018-12-19T04:34:52.885Z,91.23
2018-12-19T04:35:52.432Z,91.71
2018-12-19T04:36:52.460Z,91.52
2018-12-19T04:37:52.420Z,91.23
2018-12-19T04:38:52.435Z,91.99
2018-12-19T04:39:52.395Z,91.80
2018-12-19T04:40:52.418Z,92.37
2018-12-19T04:41:52.353Z,92.56
2018-12-19T04:42:52.292Z,92.46
2018-12-19T04:43:52.400Z,92.75
2018-12-19T04:44:52.490Z,92.46
2018-12-19T04:45:52.077Z,92.37
2018-12-19T04:46:52.555Z,92.85
2018-12-19T04:47:52.418Z,92.85
2018-12-19T04:48:52.462Z,93.23
2018-12-19T04:49:52.456Z,93.70
2018-12-19T04:50:52.286Z,93.79
2018-12-19T04:51:52.423Z,94.27
2018-12-19T04:52:52.430Z,94.27
2018-12-19T04:53:52.435Z,94.37
2018-12-19T04:54:52.394Z,94.84
2018-12-19T04:55:52.613Z,95.12
2018-12-19T04:56:52.396Z,95.32
2018-12-19T04:57:52.235Z,95.98
2018-12-19T04:58:52.155Z,95.98
2018-12-19T04:59:52.266Z,96.08
2018-12-19T05:00:52.019Z,96.93
2018-12-19T05:01:51.953Z,96.45
2018-12-19T05:02:52.470Z,96.45
2018-12-19T05:03:52.497Z,96.55
2018-12-19T05:04:58.834Z,96.74
2018-12-19T05:05:52.080Z,97.12
2018-12-19T05:06:52.027Z,96.93
2018-12-19T05:07:53.613Z,98.07
2018-12-19T05:08:53.686Z,97.78
2018-12-19T05:09:57.613Z,97.60
2018-12-19T05:10:51.766Z,97.88
2018-12-19T05:11:52.105Z,98.93
2018-12-19T05:12:52.505Z,99.11
2018-12-19T05:13:52.509Z,99.11
2018-12-19T05:14:52.411Z,99.59
2018-12-19T05:15:52.185Z,99.69
2018-12-19T05:16:52.293Z,99.97
2018-12-19T05:17:53.936Z,99.99
2018-12-19T05:18:53.941Z,99.69
2018-12-19T05:19:52.469Z,99.78
2018-12-19T05:20:53.939Z,99.99
2018-12-19T05:21:52.272Z,99.99
2018-12-19T05:22:51.773Z,99.99
2018-12-19T05:23:51.939Z,99.99
2018-12-19T05:24:52.348Z,99.99
2018-12-19T05:25:52.395Z,99.99
2018-12-19T05:26:51.925Z,99.99
2018-12-19T05:27:51.943Z,99.99
2018-12-19T05:28:51.902Z,99.99
2018-12-19T05:29:53.219Z,99.99
2018-12-19T05:30:51.937Z,99.99
2018-12-19T05:31:51.932Z,99.99
2018-12-19T05:32:52.374Z,99.99
2018-12-19T05:33:52.042Z,99.99
2018-12-19T05:34:51.936Z,99.99
2018-12-19T05:35:52.375Z,99.99
2018-12-19T05:36:51.249Z,99.99
2018-12-19T05:37:51.600Z,99.99
2018-12-19T05:38:51.927Z,99.99
2018-12-19T05:39:52.013Z,99.99
2018-12-19T05:40:51.933Z,99.99
2018-12-19T05:41:51.925Z,99.99
2018-12-19T05:42:51.899Z,99.99
2018-12-19T05:43:52.034Z,99.99
2018-12-19T05:44:51.979Z,99.99
2018-12-19T05:45:51.546Z,99.99
2018-12-19T05:46:51.538Z,99.99
2018-12-19T05:47:51.600Z,99.99
2018-12-19T05:48:51.941Z,99.99
2018-12-19T05:49:51.957Z,99.99
2018-12-19T05:50:51.969Z,99.99
2018-12-19T05:51:51.841Z,99.99
2018-12-19T05:52:52.392Z,99.99
2018-12-19T05:53:51.093Z,99.99
2018-12-19T05:54:51.438Z,99.99
2018-12-19T05:55:52.395Z,99.99
2018-12-19T05:56:51.951Z,99.99
2018-12-19T05:57:51.928Z,99.99
2018-12-19T05:58:52.051Z,99.99
2018-12-19T05:59:51.930Z,99.99
2018-12-19T06:00:52.122Z,99.99
2018-12-19T06:01:51.908Z,99.99
2018-12-19T06:02:51.861Z,99.99
2018-12-19T06:03:51.987Z,99.99
2018-12-19T06:04:52.084Z,99.99
2018-12-19T06:05:51.515Z,99.99
2018-12-19T06:06:51.951Z,99.99
2018-12-19T06:07:51.443Z,99.99
2018-12-19T06:08:51.963Z,99.99
2018-12-19T06:09:52.352Z,99.99
2018-12-19T06:10:51.986Z,99.99
2018-12-19T06:11:51.947Z,99.99
2018-12-19T06:12:51.936Z,99.99
2018-12-19T06:13:54.025Z,99.99
2018-12-19T06:14:51.998Z,99.99
2018-12-19T06:15:51.720Z,99.99
2018-12-19T06:16:51.412Z,99.99
2018-12-19T06:17:52.389Z,99.99
2018-12-19T06:18:51.398Z,99.99
2018-12-19T06:19:51.565Z,99.99
2018-12-19T06:20:51.443Z,99.99
2018-12-19T06:21:52.004Z,99.99
2018-12-19T06:22:53.323Z,99.99
2018-12-19T06:23:51.792Z,99.99
2018-12-19T06:24:51.837Z,99.99
2018-12-19T06:25:53.889Z,99.99
2018-12-19T06:26:51.778Z,99.99
2018-12-19T06:27:50.905Z,99.99
2018-12-19T06:28:53.901Z,99.99
2018-12-19T06:29:52.181Z,99.99
2018-12-19T06:30:52.044Z,99.99
2018-12-19T06:31:52.133Z,99.99
2018-12-19T06:32:52.392Z,99.99
2018-12-19T06:33:58.817Z,99.99
2018-12-19T06:34:53.462Z,99.99
2018-12-19T06:35:57.917Z,99.99
2018-12-19T06:36:51.315Z,99.99
2018-12-19T06:37:51.433Z,99.99
2018-12-19T06:39:00.399Z,99.99
2018-12-19T06:40:05.100Z,99.99
2018-12-19T06:40:51.451Z,99.99
2018-12-19T06:41:51.437Z,99.99
2018-12-19T06:42:51.466Z,99.99
2018-12-19T06:43:52.873Z,99.99
2018-12-19T06:44:51.294Z,99.99
2018-12-19T06:45:51.414Z,99.99
2018-12-19T06:46:51.894Z,99.99
2018-12-19T06:47:51.467Z,99.99
2018-12-19T06:48:51.443Z,99.99
2018-12-19T06:49:51.907Z,99.99
2018-12-19T06:50:51.876Z,99.99
2018-12-19T06:51:52.010Z,99.99
2018-12-19T06:52:51.169Z,99.99
2018-12-19T06:53:51.898Z,99.99
2018-12-19T06:54:49.257Z,99.99
2018-12-19T06:55:51.391Z,99.99
2018-12-19T06:56:51.458Z,99.99
2018-12-19T06:57:51.450Z,99.99
2018-12-19T06:58:51.901Z,99.99
2018-12-19T06:59:51.859Z,99.99
2018-12-19T07:00:51.590Z,99.99
2018-12-19T07:01:51.917Z,99.99
2018-12-19T07:02:51.352Z,99.99
2018-12-19T07:03:50.710Z,99.99
2018-12-19T07:04:51.877Z,99.99
2018-12-19T07:05:51.459Z,99.99
2018-12-19T07:06:51.899Z,99.99
2018-12-19T07:07:51.879Z,99.99
2018-12-19T07:08:51.432Z,99.99
2018-12-19T07:09:51.548Z,99.99
2018-12-19T07:10:51.373Z,99.99
2018-12-19T07:11:51.480Z,99.99
2018-12-19T07:12:51.453Z,99.99
2018-12-19T07:13:51.351Z,99.99
2018-12-19T07:14:51.050Z,99.99
2018-12-19T07:15:51.876Z,99.99
2018-12-19T07:16:51.839Z,99.99
2018-12-19T07:17:51.901Z,99.99
2018-12-19T07:18:51.073Z,99.99
2018-12-19T07:19:51.410Z,99.99
2018-12-19T07:20:51.886Z,99.99
2018-12-19T07:21:51.878Z,99.99
2018-12-19T07:22:51.405Z,99.99
2018-12-19T07:23:51.440Z,99.99
2018-12-19T07:24:51.556Z,99.99
2018-12-19T07:25:51.899Z,99.99
2018-12-19T07:26:51.947Z,99.99
2018-12-19T07:27:49.012Z,99.99
2018-12-19T07:28:51.445Z,99.99
2018-12-19T07:29:51.561Z,99.99
2018-12-19T07:30:51.583Z,99.99
2018-12-19T07:31:51.552Z,99.99
2018-12-19T07:32:51.495Z,99.99
2018-12-19T07:33:52.977Z,99.99
2018-12-19T07:34:52.981Z,99.99
2018-12-19T07:35:51.680Z,99.99
2018-12-19T07:36:53.053Z,99.99
2018-12-19T07:37:51.447Z,99.99
2018-12-19T07:38:53.114Z,99.99
2018-12-19T07:39:51.352Z,99.99
2018-12-19T07:40:51.313Z,99.99
2018-12-19T07:41:51.401Z,99.99
2018-12-19T07:42:50.976Z,99.99
2018-12-19T07:43:51.506Z,99.99
2018-12-19T07:44:51.462Z,99.99
2018-12-19T07:45:51.418Z,99.99
2018-12-19T07:46:50.963Z,99.99
2018-12-19T07:47:51.014Z,99.99
2018-12-19T07:48:51.550Z,99.99
2018-12-19T07:49:50.692Z,99.99
2018-12-19T07:50:50.385Z,99.99
2018-12-19T07:51:50.915Z,99.99
2018-12-19T07:52:52.559Z,99.99
2018-12-19T07:53:51.378Z,99.99
2018-12-19T07:54:50.971Z,99.99
2018-12-19T07:55:50.976Z,99.99
2018-12-19T07:56:50.957Z,99.99
2018-12-19T07:57:51.412Z,99.99
2018-12-19T07:58:51.400Z,99.99
2018-12-19T07:59:51.410Z,99.99
2018-12-19T08:00:50.922Z,99.99
2018-12-19T08:01:51.342Z,99.99
2018-12-19T08:02:51.155Z,99.99
2018-12-19T08:03:51.395Z,99.99
2018-12-19T08:04:50.983Z,99.99
2018-12-19T08:05:51.427Z,99.99
2018-12-19T08:06:52.422Z,99.99
2018-12-19T08:07:50.888Z,99.99
2018-12-19T08:08:50.256Z,99.99
2018-12-19T08:09:50.753Z,99.99
2018-12-19T08:10:52.255Z,99.99
2018-12-19T08:12:56.967Z,99.99
2018-12-19T08:13:50.356Z,99.99
2018-12-19T08:14:56.863Z,99.99
2018-12-19T08:15:51.415Z,99.99
2018-12-19T08:16:50.705Z,99.99
2018-12-19T08:17:51.047Z,99.99
2018-12-19T08:18:51.066Z,99.99
2018-12-19T08:19:50.961Z,99.99
2018-12-19T08:20:51.020Z,99.99
2018-12-19T08:21:50.961Z,99.99
2018-12-19T08:22:50.923Z,99.99
2018-12-19T08:23:51.015Z,99.99
2018-12-19T08:24:50.451Z,99.99
2018-12-19T08:25:50.541Z,99.99
2018-12-19T08:26:50.906Z,99.99
2018-12-19T08:27:51.403Z,99.99
2018-12-19T08:28:51.303Z,99.99
2018-12-19T08:29:50.871Z,99.99
2018-12-19T08:30:50.990Z,99.99
2018-12-19T08:31:51.411Z,99.99
2018-12-19T08:32:51.220Z,99.99
2018-12-19T08:33:50.880Z,99.99
2018-12-19T08:34:50.981Z,99.99
2018-12-19T08:35:50.967Z,99.99
2018-12-19T08:36:51.410Z,99.99
2018-12-19T08:37:50.574Z,99.99
2018-12-19T08:38:50.550Z,99.99
2018-12-19T08:39:50.486Z,99.99
2018-12-19T08:40:50.534Z,99.99
2018-12-19T08:41:50.966Z,99.99
2018-12-19T08:42:50.966Z,99.99
2018-12-19T08:43:50.989Z,99.99
2018-12-19T08:44:51.028Z,99.99
2018-12-19T08:45:50.281Z,99.99
2018-12-19T08:46:50.557Z,99.99
2018-12-19T08:47:51.408Z,99.99
2018-12-19T08:48:50.817Z,99.99
2018-12-19T08:49:50.423Z,99.99
2018-12-19T08:50:50.762Z,99.99
2018-12-19T08:51:51.457Z,99.99
2018-12-19T08:52:52.044Z,99.99
2018-12-19T08:53:51.138Z,99.99
2018-12-19T08:54:50.977Z,99.99
2018-12-19T08:55:50.923Z,99.99
2018-12-19T08:56:51.124Z,99.99
2018-12-19T08:57:50.745Z,99.99
2018-12-19T08:58:50.469Z,99.99
2018-12-19T08:59:50.485Z,99.99
2018-12-19T09:00:50.487Z,99.99
2018-12-19T09:01:50.691Z,99.99
2018-12-19T09:02:50.924Z,99.99
2018-12-19T09:03:50.478Z,99.99
2018-12-19T09:04:51.168Z,99.99
2018-12-19T09:05:50.796Z,99.99
2018-12-19T09:06:50.909Z,99.99
2018-12-19T09:07:50.129Z,99.99
2018-12-19T09:08:50.345Z,99.99
2018-12-19T09:09:50.889Z,99.99
2018-12-19T09:10:57.419Z,99.99
2018-12-19T09:11:50.428Z,99.99
2018-12-19T09:12:50.651Z,99.99
2018-12-19T09:13:51.027Z,99.99
2018-12-19T09:14:50.620Z,99.99
2018-12-19T09:15:50.922Z,99.99
2018-12-19T09:16:50.955Z,99.99
2018-12-19T09:17:50.311Z,99.99
2018-12-19T09:18:51.175Z,99.99
2018-12-19T09:19:50.545Z,99.99
2018-12-19T09:20:50.940Z,99.99
2018-12-19T09:21:50.488Z,99.99
2018-12-19T09:22:50.929Z,99.99
2018-12-19T09:23:50.330Z,99.99
2018-12-19T09:24:50.528Z,99.99
2018-12-19T09:25:50.918Z,99.99
2018-12-19T09:26:50.915Z,99.99
2018-12-19T09:27:50.241Z,99.99
2018-12-19T09:28:50.055Z,99.99
2018-12-19T09:29:50.301Z,99.99
2018-12-19T09:30:51.865Z,99.99
2018-12-19T09:31:50.915Z,99.99
2018-12-19T09:32:50.466Z,99.99
2018-12-19T09:34:50.751Z,99.99
2018-12-19T09:35:50.897Z,99.99
2018-12-19T09:36:50.893Z,99.99
2018-12-19T09:37:50.233Z,99.99
2018-12-19T09:38:50.494Z,99.99
2018-12-19T09:39:50.874Z,99.99
2018-12-19T09:40:50.446Z,99.99
2018-12-19T09:41:50.941Z,99.99
2018-12-19T09:42:50.079Z,99.99
2018-12-19T09:43:50.613Z,99.99
2018-12-19T09:44:51.226Z,99.99
2018-12-19T09:45:50.896Z,99.99
2018-12-19T09:46:50.899Z,99.99
2018-12-19T09:47:49.524Z,99.99
2018-12-19T09:48:49.992Z,99.99
2018-12-19T09:49:50.479Z,99.99
2018-12-19T09:50:50.588Z,99.99
2018-12-19T09:51:50.915Z,99.99
2018-12-19T09:52:50.015Z,99.99
2018-12-19T09:53:50.754Z,99.99
2018-12-19T09:54:50.107Z,99.99
2018-12-19T09:55:50.225Z,99.99
2018-12-19T09:56:50.130Z,99.99
2018-12-19T09:57:50.894Z,99.99
2018-12-19T09:58:50.481Z,99.99
2018-12-19T09:59:50.675Z,99.99
2018-12-19T10:00:50.452Z,99.99
2018-12-19T10:01:50.483Z,99.99
2018-12-19T10:02:49.866Z,99.99
2018-12-19T10:03:50.513Z,99.99
2018-12-19T10:04:52.299Z,99.99
2018-12-19T10:05:50.425Z,99.99
2018-12-19T10:06:50.574Z,99.99
2018-12-19T10:07:50.567Z,99.99
2018-12-19T10:08:52.365Z,99.99
2018-12-19T10:09:50.505Z,99.99
2018-12-19T10:10:49.990Z,99.99
2018-12-19T10:11:50.427Z,99.99
2018-12-19T10:12:50.125Z,99.99
2018-12-19T10:13:49.662Z,99.99
2018-12-19T10:14:50.047Z,99.99
2018-12-19T10:15:49.990Z,99.99
2018-12-19T10:16:50.196Z,99.99
2018-12-19T10:17:49.671Z,99.99
2018-12-19T10:18:49.957Z,99.99
2018-12-19T10:19:50.375Z,99.99
2018-12-19T10:20:49.977Z,99.99
2018-12-19T10:21:50.403Z,99.99
2018-12-19T10:22:49.571Z,99.99
2018-12-19T10:23:49.852Z,99.99
2018-12-19T10:24:49.677Z,99.99
2018-12-19T10:25:49.756Z,99.99
2018-12-19T10:26:49.995Z,99.99
2018-12-19T10:27:50.432Z,99.99
2018-12-19T10:28:49.793Z,99.99
2018-12-19T10:29:50.398Z,99.99
2018-12-19T10:30:49.960Z,99.99
2018-12-19T10:31:50.143Z,99.99
2018-12-19T10:32:50.414Z,99.99
2018-12-19T10:33:50.068Z,99.99
2018-12-19T10:34:55.847Z,99.99
2018-12-19T10:35:50.465Z,99.99
2018-12-19T10:36:49.595Z,99.99
2018-12-19T10:37:50.293Z,99.99
2018-12-19T10:38:50.428Z,99.99
2018-12-19T10:39:50.027Z,99.99
2018-12-19T10:40:50.419Z,99.99
2018-12-19T10:41:50.154Z,99.99
2018-12-19T10:42:49.989Z,99.99
2018-12-19T10:43:49.973Z,99.99
2018-12-19T10:44:50.038Z,99.99
2018-12-19T10:45:49.640Z,99.99
2018-12-19T10:46:49.986Z,99.99
2018-12-19T10:47:50.435Z,99.99
2018-12-19T10:48:49.604Z,99.99
2018-12-19T10:49:50.254Z,99.99
2018-12-19T10:50:50.444Z,99.99
2018-12-19T10:51:49.699Z,99.99
2018-12-19T10:52:49.252Z,99.99
2018-12-19T10:53:49.860Z,99.99
2018-12-19T10:54:49.611Z,99.99
2018-12-19T10:55:49.935Z,99.99
2018-12-19T10:56:49.175Z,99.99
2018-12-19T10:57:49.721Z,99.99
2018-12-19T10:58:52.058Z,99.99
2018-12-19T10:59:50.070Z,99.99
2018-12-19T11:00:50.025Z,99.99
2018-12-19T11:01:50.437Z,99.99
2018-12-19T11:02:49.967Z,99.99
2018-12-19T11:03:50.429Z,99.99
2018-12-19T11:04:49.825Z,99.99
2018-12-19T11:05:54.312Z,99.99
2018-12-19T11:06:50.046Z,99.99
2018-12-19T11:07:50.403Z,99.99
2018-12-19T11:08:50.051Z,99.99
2018-12-19T11:09:49.860Z,99.99
2018-12-19T11:10:49.906Z,99.99
2018-12-19T11:11:50.176Z,99.99
2018-12-19T11:12:49.842Z,99.99
2018-12-19T11:13:50.431Z,99.99
2018-12-19T11:14:50.428Z,99.99
2018-12-19T11:15:50.266Z,99.99
2018-12-19T11:16:50.398Z,99.99
2018-12-19T11:17:49.540Z,99.99
2018-12-19T11:18:49.751Z,99.99
2018-12-19T11:19:49.890Z,99.99
2018-12-19T11:20:51.940Z,99.99
2018-12-19T11:21:59.300Z,99.99
2018-12-19T11:23:43.881Z,99.99
2018-12-19T11:24:43.869Z,99.99
2018-12-19T11:26:38.011Z,99.99
2018-12-19T11:27:38.428Z,99.99
2018-12-19T11:29:33.755Z,99.99
2018-12-19T11:30:33.710Z,99.99
2018-12-19T11:32:27.948Z,99.99
2018-12-19T11:33:28.445Z,99.99
2018-12-19T11:35:22.628Z,99.99
2018-12-19T11:36:22.529Z,99.99
2018-12-19T11:38:16.766Z,99.99
2018-12-19T11:39:18.129Z,99.99
2018-12-19T11:41:12.074Z,99.99
2018-12-19T11:42:12.359Z,99.99
2018-12-19T11:44:06.304Z,99.99
2018-12-19T11:45:06.548Z,99.99
2018-12-19T11:47:01.770Z,99.99
2018-12-19T11:48:01.753Z,99.99
2018-12-19T11:49:56.332Z,99.99
2018-12-19T11:50:55.562Z,99.99
2018-12-19T11:52:50.599Z,99.99
2018-12-19T11:53:51.014Z,99.99
2018-12-19T11:55:45.622Z,99.99
2018-12-19T11:56:45.919Z,99.99
2018-12-19T11:58:40.423Z,99.99
2018-12-19T11:59:40.329Z,99.99
2018-12-19T12:01:34.261Z,99.99
2018-12-19T12:02:34.508Z,99.99
2018-12-19T12:04:29.128Z,99.99
2018-12-19T12:05:29.471Z,99.99
2018-12-19T12:07:23.286Z,99.99
2018-12-19T12:08:24.094Z,99.99
2018-12-19T12:10:18.397Z,99.99
2018-12-19T12:11:18.469Z,99.99
2018-12-19T12:13:13.082Z,99.99
2018-12-19T12:14:13.676Z,99.99
2018-12-19T12:15:13.134Z,99.99
2018-12-19T12:16:13.700Z,99.99
2018-12-19T12:17:13.646Z,99.99
2018-12-19T12:18:14.057Z,99.99
2018-12-19T12:20:14.161Z,99.99
2018-12-19T12:21:13.124Z,99.99
2018-12-19T12:22:14.075Z,99.99
2018-12-19T12:23:13.672Z,99.99
2018-12-19T12:24:19.626Z,99.99
2018-12-19T12:25:13.758Z,99.99
2018-12-19T12:26:14.435Z,99.99
2018-12-19T12:27:14.064Z,99.99
2018-12-19T12:28:13.521Z,99.99
2018-12-19T12:29:13.299Z,99.99
2018-12-19T12:30:13.534Z,99.99
2018-12-19T12:31:13.133Z,99.99
2018-12-19T12:32:14.062Z,99.99
2018-12-19T12:33:15.332Z,99.99
2018-12-19T12:34:13.616Z,99.99
2018-12-19T12:35:13.642Z,99.99
2018-12-19T12:36:13.259Z,99.99
2018-12-19T12:37:14.082Z,99.99
2018-12-19T12:38:13.247Z,99.99
2018-12-19T12:39:13.317Z,99.99
2018-12-19T12:40:15.684Z,99.99
2018-12-19T12:41:12.682Z,99.99
2018-12-19T12:42:12.695Z,99.99
2018-12-19T12:43:13.184Z,99.99
2018-12-19T12:44:14.085Z,99.99
2018-12-19T12:45:13.137Z,99.99
2018-12-19T12:46:14.157Z,99.99
2018-12-19T12:47:13.657Z,99.99
2018-12-19T12:48:13.684Z,99.99
2018-12-19T12:49:13.629Z,99.99
2018-12-19T12:50:14.107Z,99.99
2018-12-19T12:52:13.819Z,99.99
2018-12-19T12:53:13.725Z,99.99
2018-12-19T12:54:13.594Z,99.99
2018-12-19T12:55:13.633Z,99.99
2018-12-19T12:56:14.291Z,99.99
2018-12-19T12:57:14.831Z,99.99
2018-12-19T12:58:12.735Z,99.99
2018-12-19T12:59:14.939Z,99.99
2018-12-19T13:00:13.169Z,99.99
2018-12-19T13:01:13.407Z,99.99
2018-12-19T13:02:13.550Z,99.99
2018-12-19T13:03:13.580Z,99.99
2018-12-19T13:04:13.239Z,99.99
2018-12-19T13:05:13.589Z,99.99
2018-12-19T13:06:13.422Z,99.99
2018-12-19T13:07:13.129Z,99.99
2018-12-19T13:08:13.671Z,99.99
2018-12-19T13:09:13.582Z,99.99
2018-12-19T13:10:13.596Z,99.99
2018-12-19T13:11:15.706Z,99.99
2018-12-19T13:12:13.147Z,99.99
2018-12-19T13:13:13.563Z,99.99